sensor_id;sensor_type;location;lat;lon;timestamp;temperature;humidity
14008;DHT22;61651;45.508;12.232;2022-08-07T00:00:05;27.00;99.90
14008;DHT22;61651;45.508;12.232;2022-08-07T00:03:09;27.10;99.90
14008;DHT22;61651;45.508;12.232;2022-08-07T00:06:11;27.10;99.90
14008;DHT22;61651;45.508;12.232;2022-08-07T00:09:13;27.00;99.90
14008;DHT22;61651;45.508;12.232;2022-08-07T00:12:15;26.90;99.90
14008;DHT22;61651;45.508;12.232;2022-08-07T00:15:17;27.00;99.90
14008;DHT22;61651;45.508;12.232;2022-08-07T00:18:23;27.10;99.90
14008;DHT22;61651;45.508;12.232;2022-08-07T00:21:25;27.10;99.90
14008;DHT22;61651;45.508;12.232;2022-08-07T00:24:27;27.20;99.90
14008;DHT22;61651;45.508;12.232;2022-08-07T00:27:29;27.20;99.90
14008;DHT22;61651;45.508;12.232;2022-08-07T00:30:31;27.20;99.90
14008;DHT22;61651;45.508;12.232;2022-08-07T00:33:35;27.20;99.90
14008;DHT22;61651;45.508;12.232;2022-08-07T00:36:38;27.20;99.90
14008;DHT22;61651;45.508;12.232;2022-08-07T00:39:40;27.20;99.90
14008;DHT22;61651;45.508;12.232;2022-08-07T00:42:42;27.30;99.90
14008;DHT22;61651;45.508;12.232;2022-08-07T00:45:44;27.30;99.90
14008;DHT22;61651;45.508;12.232;2022-08-07T00:48:49;27.30;99.90
14008;DHT22;61651;45.508;12.232;2022-08-07T00:51:51;27.40;99.90
14008;DHT22;61651;45.508;12.232;2022-08-07T00:54:53;27.40;99.90
14008;DHT22;61651;45.508;12.232;2022-08-07T00:57:56;27.40;99.90
14008;DHT22;61651;45.508;12.232;2022-08-07T01:00:58;27.40;99.90
14008;DHT22;61651;45.508;12.232;2022-08-07T01:04:04;27.30;99.90
14008;DHT22;61651;45.508;12.232;2022-08-07T01:07:06;27.20;99.90
14008;DHT22;61651;45.508;12.232;2022-08-07T01:10:09;27.20;99.90
14008;DHT22;61651;45.508;12.232;2022-08-07T01:13:11;27.10;99.90
14008;DHT22;61651;45.508;12.232;2022-08-07T01:16:13;27.00;99.90
14008;DHT22;61651;45.508;12.232;2022-08-07T01:19:19;26.90;99.90
14008;DHT22;61651;45.508;12.232;2022-08-07T01:22:23;26.90;99.90
14008;DHT22;61651;45.508;12.232;2022-08-07T01:25:27;26.80;99.90
14008;DHT22;61651;45.508;12.232;2022-08-07T01:28:29;26.80;99.90
14008;DHT22;61651;45.508;12.232;2022-08-07T01:31:31;26.80;99.90
14008;DHT22;61651;45.508;12.232;2022-08-07T01:34:34;26.70;99.90
14008;DHT22;61651;45.508;12.232;2022-08-07T01:37:37;26.50;99.90
14008;DHT22;61651;45.508;12.232;2022-08-07T01:40:39;26.30;99.90
14008;DHT22;61651;45.508;12.232;2022-08-07T01:43:43;26.00;99.90
14008;DHT22;61651;45.508;12.232;2022-08-07T01:46:46;25.30;99.90
14008;DHT22;61651;45.508;12.232;2022-08-07T01:49:48;24.90;99.90
14008;DHT22;61651;45.508;12.232;2022-08-07T01:52:53;25.30;99.90
14008;DHT22;61651;45.508;12.232;2022-08-07T01:56:01;25.70;99.90
14008;DHT22;61651;45.508;12.232;2022-08-07T01:59:07;26.00;99.90
14008;DHT22;61651;45.508;12.232;2022-08-07T02:02:14;26.10;99.90
14008;DHT22;61651;45.508;12.232;2022-08-07T02:05:20;26.10;99.90
14008;DHT22;61651;45.508;12.232;2022-08-07T02:08:25;26.30;99.90
14008;DHT22;61651;45.508;12.232;2022-08-07T02:11:29;26.20;99.90
14008;DHT22;61651;45.508;12.232;2022-08-07T02:14:33;26.20;99.90
14008;DHT22;61651;45.508;12.232;2022-08-07T02:17:38;26.10;99.90
14008;DHT22;61651;45.508;12.232;2022-08-07T02:20:41;26.10;99.90
14008;DHT22;61651;45.508;12.232;2022-08-07T02:23:45;26.20;99.90
14008;DHT22;61651;45.508;12.232;2022-08-07T02:26:49;26.20;99.90
14008;DHT22;61651;45.508;12.232;2022-08-07T02:29:52;26.20;99.90
14008;DHT22;61651;45.508;12.232;2022-08-07T02:32:56;26.30;99.90
14008;DHT22;61651;45.508;12.232;2022-08-07T02:36:00;26.30;99.90
14008;DHT22;61651;45.508;12.232;2022-08-07T02:39:06;26.30;99.90
14008;DHT22;61651;45.508;12.232;2022-08-07T02:42:09;26.40;99.90
14008;DHT22;61651;45.508;12.232;2022-08-07T02:45:14;26.50;99.90
14008;DHT22;61651;45.508;12.232;2022-08-07T02:48:17;26.40;99.90
14008;DHT22;61651;45.508;12.232;2022-08-07T02:51:20;26.30;99.90
14008;DHT22;61651;45.508;12.232;2022-08-07T02:54:26;26.20;99.90
14008;DHT22;61651;45.508;12.232;2022-08-07T02:57:30;26.00;99.90
14008;DHT22;61651;45.508;12.232;2022-08-07T03:00:33;25.90;99.90
14008;DHT22;61651;45.508;12.232;2022-08-07T03:03:36;25.80;99.90
14008;DHT22;61651;45.508;12.232;2022-08-07T03:06:39;25.80;99.90
14008;DHT22;61651;45.508;12.232;2022-08-07T03:09:43;25.80;99.90
14008;DHT22;61651;45.508;12.232;2022-08-07T03:12:46;25.80;99.90
14008;DHT22;61651;45.508;12.232;2022-08-07T03:15:49;25.90;99.90
14008;DHT22;61651;45.508;12.232;2022-08-07T03:18:51;25.90;99.90
14008;DHT22;61651;45.508;12.232;2022-08-07T03:21:54;26.10;99.90
14008;DHT22;61651;45.508;12.232;2022-08-07T03:24:58;26.10;99.90
14008;DHT22;61651;45.508;12.232;2022-08-07T03:28:02;26.10;99.90
14008;DHT22;61651;45.508;12.232;2022-08-07T03:31:05;26.20;99.90
14008;DHT22;61651;45.508;12.232;2022-08-07T03:34:20;26.20;99.90
14008;DHT22;61651;45.508;12.232;2022-08-07T03:37:23;26.30;99.90
14008;DHT22;61651;45.508;12.232;2022-08-07T03:40:27;26.30;99.90
14008;DHT22;61651;45.508;12.232;2022-08-07T03:43:29;26.30;99.90
14008;DHT22;61651;45.508;12.232;2022-08-07T03:46:32;26.30;99.90
14008;DHT22;61651;45.508;12.232;2022-08-07T03:49:35;26.30;99.90
14008;DHT22;61651;45.508;12.232;2022-08-07T03:52:37;26.20;99.90
14008;DHT22;61651;45.508;12.232;2022-08-07T03:55:41;26.20;99.90
14008;DHT22;61651;45.508;12.232;2022-08-07T03:58:44;26.10;99.90
14008;DHT22;61651;45.508;12.232;2022-08-07T04:01:48;26.10;99.90
14008;DHT22;61651;45.508;12.232;2022-08-07T04:04:50;25.90;99.90
14008;DHT22;61651;45.508;12.232;2022-08-07T04:07:52;25.80;99.90
14008;DHT22;61651;45.508;12.232;2022-08-07T04:10:56;25.90;99.90
14008;DHT22;61651;45.508;12.232;2022-08-07T04:13:59;25.90;99.90
14008;DHT22;61651;45.508;12.232;2022-08-07T04:17:02;26.00;99.90
14008;DHT22;61651;45.508;12.232;2022-08-07T04:20:08;26.00;99.90
14008;DHT22;61651;45.508;12.232;2022-08-07T04:23:11;26.00;99.90
14008;DHT22;61651;45.508;12.232;2022-08-07T04:26:15;26.00;99.90
14008;DHT22;61651;45.508;12.232;2022-08-07T04:29:17;25.90;99.90
14008;DHT22;61651;45.508;12.232;2022-08-07T04:32:19;25.80;99.90
14008;DHT22;61651;45.508;12.232;2022-08-07T04:35:21;25.80;99.90
14008;DHT22;61651;45.508;12.232;2022-08-07T04:38:24;25.80;99.90
14008;DHT22;61651;45.508;12.232;2022-08-07T04:41:28;25.80;99.90
14008;DHT22;61651;45.508;12.232;2022-08-07T04:44:30;25.80;99.90
14008;DHT22;61651;45.508;12.232;2022-08-07T04:47:37;25.80;99.90
14008;DHT22;61651;45.508;12.232;2022-08-07T04:50:48;25.80;99.90
14008;DHT22;61651;45.508;12.232;2022-08-07T04:54:00;25.80;99.90
14008;DHT22;61651;45.508;12.232;2022-08-07T04:57:10;25.90;99.90
14008;DHT22;61651;45.508;12.232;2022-08-07T05:00:17;25.90;99.90
14008;DHT22;61651;45.508;12.232;2022-08-07T05:03:23;25.90;99.90
14008;DHT22;61651;45.508;12.232;2022-08-07T05:06:33;25.90;99.90
14008;DHT22;61651;45.508;12.232;2022-08-07T05:09:39;25.90;99.90
14008;DHT22;61651;45.508;12.232;2022-08-07T05:12:50;26.00;99.90
14008;DHT22;61651;45.508;12.232;2022-08-07T05:15:54;26.00;99.90
14008;DHT22;61651;45.508;12.232;2022-08-07T05:19:00;25.90;99.90
14008;DHT22;61651;45.508;12.232;2022-08-07T05:22:04;26.00;99.90
14008;DHT22;61651;45.508;12.232;2022-08-07T05:25:08;25.90;99.90
14008;DHT22;61651;45.508;12.232;2022-08-07T05:28:13;25.90;99.90
14008;DHT22;61651;45.508;12.232;2022-08-07T05:31:17;25.80;99.90
14008;DHT22;61651;45.508;12.232;2022-08-07T05:34:20;25.80;99.90
14008;DHT22;61651;45.508;12.232;2022-08-07T05:37:24;25.90;99.90
14008;DHT22;61651;45.508;12.232;2022-08-07T05:40:27;26.10;99.90
14008;DHT22;61651;45.508;12.232;2022-08-07T05:43:30;26.20;99.90
14008;DHT22;61651;45.508;12.232;2022-08-07T05:46:34;26.30;99.90
14008;DHT22;61651;45.508;12.232;2022-08-07T05:49:37;26.30;99.90
14008;DHT22;61651;45.508;12.232;2022-08-07T05:52:40;26.30;99.90
14008;DHT22;61651;45.508;12.232;2022-08-07T05:55:42;26.00;99.90
14008;DHT22;61651;45.508;12.232;2022-08-07T05:58:46;26.20;99.90
14008;DHT22;61651;45.508;12.232;2022-08-07T06:01:49;26.20;99.90
14008;DHT22;61651;45.508;12.232;2022-08-07T06:04:56;26.40;99.90
14008;DHT22;61651;45.508;12.232;2022-08-07T06:07:58;26.50;99.90
14008;DHT22;61651;45.508;12.232;2022-08-07T06:11:01;26.60;99.90
14008;DHT22;61651;45.508;12.232;2022-08-07T06:14:04;26.80;99.90
14008;DHT22;61651;45.508;12.232;2022-08-07T06:17:07;26.90;99.90
14008;DHT22;61651;45.508;12.232;2022-08-07T06:20:10;27.00;99.90
14008;DHT22;61651;45.508;12.232;2022-08-07T06:23:12;27.10;99.90
14008;DHT22;61651;45.508;12.232;2022-08-07T06:26:14;27.20;99.90
14008;DHT22;61651;45.508;12.232;2022-08-07T06:29:18;27.20;99.90
14008;DHT22;61651;45.508;12.232;2022-08-07T06:32:20;27.30;99.90
14008;DHT22;61651;45.508;12.232;2022-08-07T06:35:22;27.30;99.90
14008;DHT22;61651;45.508;12.232;2022-08-07T06:38:24;27.40;99.90
14008;DHT22;61651;45.508;12.232;2022-08-07T06:41:29;27.40;99.90
14008;DHT22;61651;45.508;12.232;2022-08-07T06:44:34;27.40;99.90
14008;DHT22;61651;45.508;12.232;2022-08-07T06:47:36;27.40;99.90
14008;DHT22;61651;45.508;12.232;2022-08-07T06:50:39;27.50;99.90
14008;DHT22;61651;45.508;12.232;2022-08-07T06:53:43;27.60;99.90
14008;DHT22;61651;45.508;12.232;2022-08-07T06:56:45;27.60;99.90
14008;DHT22;61651;45.508;12.232;2022-08-07T06:59:51;27.70;99.90
14008;DHT22;61651;45.508;12.232;2022-08-07T07:02:54;27.70;99.90
14008;DHT22;61651;45.508;12.232;2022-08-07T07:05:57;27.80;99.90
14008;DHT22;61651;45.508;12.232;2022-08-07T07:09:20;27.90;99.90
14008;DHT22;61651;45.508;12.232;2022-08-07T07:12:29;28.00;99.90
14008;DHT22;61651;45.508;12.232;2022-08-07T07:15:40;28.20;99.90
14008;DHT22;61651;45.508;12.232;2022-08-07T07:18:45;28.30;99.90
14008;DHT22;61651;45.508;12.232;2022-08-07T07:21:49;28.40;99.90
14008;DHT22;61651;45.508;12.232;2022-08-07T07:24:53;28.50;99.90
14008;DHT22;61651;45.508;12.232;2022-08-07T07:27:59;28.70;99.90
14008;DHT22;61651;45.508;12.232;2022-08-07T07:31:07;28.70;99.90
14008;DHT22;61651;45.508;12.232;2022-08-07T07:34:17;28.80;99.90
14008;DHT22;61651;45.508;12.232;2022-08-07T07:37:22;28.90;99.90
14008;DHT22;61651;45.508;12.232;2022-08-07T07:40:25;29.00;99.90
14008;DHT22;61651;45.508;12.232;2022-08-07T07:43:30;29.00;99.90
14008;DHT22;61651;45.508;12.232;2022-08-07T07:46:36;29.10;99.90
14008;DHT22;61651;45.508;12.232;2022-08-07T07:49:39;29.10;99.90
14008;DHT22;61651;45.508;12.232;2022-08-07T07:52:43;29.10;99.90
14008;DHT22;61651;45.508;12.232;2022-08-07T07:55:46;29.10;99.90
14008;DHT22;61651;45.508;12.232;2022-08-07T07:58:48;29.00;99.90
14008;DHT22;61651;45.508;12.232;2022-08-07T08:01:54;29.00;99.90
14008;DHT22;61651;45.508;12.232;2022-08-07T08:04:57;28.90;99.90
14008;DHT22;61651;45.508;12.232;2022-08-07T08:08:01;29.00;99.90
14008;DHT22;61651;45.508;12.232;2022-08-07T08:11:04;29.20;99.90
14008;DHT22;61651;45.508;12.232;2022-08-07T08:14:07;29.10;99.90
14008;DHT22;61651;45.508;12.232;2022-08-07T08:17:12;28.90;99.90
14008;DHT22;61651;45.508;12.232;2022-08-07T08:20:16;29.00;99.90
14008;DHT22;61651;45.508;12.232;2022-08-07T08:23:19;29.10;99.90
14008;DHT22;61651;45.508;12.232;2022-08-07T08:26:40;29.20;99.90
14008;DHT22;61651;45.508;12.232;2022-08-07T08:30:03;29.10;99.90
14008;DHT22;61651;45.508;12.232;2022-08-07T08:33:08;28.50;99.90
14008;DHT22;61651;45.508;12.232;2022-08-07T08:36:16;28.60;99.90
14008;DHT22;61651;45.508;12.232;2022-08-07T08:39:19;28.70;99.90
14008;DHT22;61651;45.508;12.232;2022-08-07T08:42:25;28.70;99.90
14008;DHT22;61651;45.508;12.232;2022-08-07T08:45:32;28.80;99.90
14008;DHT22;61651;45.508;12.232;2022-08-07T08:48:42;28.70;99.90
14008;DHT22;61651;45.508;12.232;2022-08-07T08:51:52;28.70;99.90
14008;DHT22;61651;45.508;12.232;2022-08-07T08:54:59;28.70;99.90
14008;DHT22;61651;45.508;12.232;2022-08-07T08:58:09;28.70;99.90
14008;DHT22;61651;45.508;12.232;2022-08-07T09:01:15;28.50;99.90
14008;DHT22;61651;45.508;12.232;2022-08-07T09:04:28;28.60;99.90
14008;DHT22;61651;45.508;12.232;2022-08-07T09:07:37;28.70;99.90
14008;DHT22;61651;45.508;12.232;2022-08-07T09:10:47;28.70;99.90
14008;DHT22;61651;45.508;12.232;2022-08-07T09:14:00;28.80;99.90
14008;DHT22;61651;45.508;12.232;2022-08-07T09:17:11;28.90;99.90
14008;DHT22;61651;45.508;12.232;2022-08-07T09:20:28;29.00;99.90
14008;DHT22;61651;45.508;12.232;2022-08-07T09:23:45;29.20;99.90
14008;DHT22;61651;45.508;12.232;2022-08-07T09:26:55;29.40;99.90
14008;DHT22;61651;45.508;12.232;2022-08-07T09:30:04;29.40;99.90
14008;DHT22;61651;45.508;12.232;2022-08-07T09:33:14;29.40;99.90
14008;DHT22;61651;45.508;12.232;2022-08-07T09:36:23;29.10;99.90
14008;DHT22;61651;45.508;12.232;2022-08-07T09:39:40;28.90;99.90
14008;DHT22;61651;45.508;12.232;2022-08-07T09:42:51;28.90;99.90
14008;DHT22;61651;45.508;12.232;2022-08-07T09:46:03;29.10;99.90
14008;DHT22;61651;45.508;12.232;2022-08-07T09:49:20;29.20;99.90
14008;DHT22;61651;45.508;12.232;2022-08-07T09:52:36;29.20;99.90
14008;DHT22;61651;45.508;12.232;2022-08-07T09:59:29;29.30;99.90
14008;DHT22;61651;45.508;12.232;2022-08-07T10:02:49;29.30;99.90
14008;DHT22;61651;45.508;12.232;2022-08-07T10:06:30;29.20;99.90
14008;DHT22;61651;45.508;12.232;2022-08-07T10:09:45;29.30;99.90
14008;DHT22;61651;45.508;12.232;2022-08-07T10:13:00;29.40;99.90
14008;DHT22;61651;45.508;12.232;2022-08-07T10:16:18;29.40;99.90
14008;DHT22;61651;45.508;12.232;2022-08-07T10:19:37;29.50;99.90
14008;DHT22;61651;45.508;12.232;2022-08-07T10:23:02;29.40;99.90
14008;DHT22;61651;45.508;12.232;2022-08-07T10:26:27;29.50;99.90
14008;DHT22;61651;45.508;12.232;2022-08-07T10:29:46;29.70;99.90
14008;DHT22;61651;45.508;12.232;2022-08-07T10:33:23;29.50;99.90
14008;DHT22;61651;45.508;12.232;2022-08-07T10:36:41;29.60;99.90
14008;DHT22;61651;45.508;12.232;2022-08-07T10:42:57;29.80;99.90
14008;DHT22;61651;45.508;12.232;2022-08-07T10:46:11;29.90;99.90
14008;DHT22;61651;45.508;12.232;2022-08-07T10:49:21;30.00;99.90
14008;DHT22;61651;45.508;12.232;2022-08-07T10:52:30;30.00;99.90
14008;DHT22;61651;45.508;12.232;2022-08-07T10:55:41;29.80;99.90
14008;DHT22;61651;45.508;12.232;2022-08-07T10:58:56;29.70;99.90
14008;DHT22;61651;45.508;12.232;2022-08-07T11:02:05;29.70;99.90
14008;DHT22;61651;45.508;12.232;2022-08-07T11:05:30;29.70;99.90
14008;DHT22;61651;45.508;12.232;2022-08-07T11:08:38;29.40;99.90
14008;DHT22;61651;45.508;12.232;2022-08-07T11:11:45;29.30;99.90
14008;DHT22;61651;45.508;12.232;2022-08-07T11:14:54;29.30;99.90
14008;DHT22;61651;45.508;12.232;2022-08-07T11:18:03;29.40;99.90
14008;DHT22;61651;45.508;12.232;2022-08-07T11:21:10;29.50;99.90
14008;DHT22;61651;45.508;12.232;2022-08-07T11:24:19;29.50;99.90
14008;DHT22;61651;45.508;12.232;2022-08-07T11:27:42;29.50;99.90
14008;DHT22;61651;45.508;12.232;2022-08-07T11:30:53;29.30;99.90
14008;DHT22;61651;45.508;12.232;2022-08-07T11:34:02;29.30;99.90
14008;DHT22;61651;45.508;12.232;2022-08-07T11:37:12;29.30;99.90
14008;DHT22;61651;45.508;12.232;2022-08-07T11:40:24;29.40;99.90
14008;DHT22;61651;45.508;12.232;2022-08-07T11:43:33;29.50;99.90
14008;DHT22;61651;45.508;12.232;2022-08-07T11:46:49;29.60;99.90
14008;DHT22;61651;45.508;12.232;2022-08-07T11:50:10;29.90;99.90
14008;DHT22;61651;45.508;12.232;2022-08-07T11:53:25;30.00;99.90
14008;DHT22;61651;45.508;12.232;2022-08-07T12:00:03;30.40;99.90
14008;DHT22;61651;45.508;12.232;2022-08-07T12:03:45;30.50;99.90
14008;DHT22;61651;45.508;12.232;2022-08-07T12:06:55;30.20;99.90
14008;DHT22;61651;45.508;12.232;2022-08-07T12:10:03;29.90;99.90
14008;DHT22;61651;45.508;12.232;2022-08-07T12:13:13;29.90;99.90
14008;DHT22;61651;45.508;12.232;2022-08-07T12:16:20;29.90;99.90
14008;DHT22;61651;45.508;12.232;2022-08-07T12:19:32;30.00;99.90
14008;DHT22;61651;45.508;12.232;2022-08-07T12:22:44;29.90;99.90
14008;DHT22;61651;45.508;12.232;2022-08-07T12:25:51;30.00;99.90
14008;DHT22;61651;45.508;12.232;2022-08-07T12:29:00;29.90;99.90
14008;DHT22;61651;45.508;12.232;2022-08-07T12:32:10;29.80;99.90
14008;DHT22;61651;45.508;12.232;2022-08-07T12:35:16;29.70;99.90
14008;DHT22;61651;45.508;12.232;2022-08-07T12:38:21;29.60;99.90
14008;DHT22;61651;45.508;12.232;2022-08-07T12:41:24;29.30;99.90
14008;DHT22;61651;45.508;12.232;2022-08-07T12:44:28;29.30;99.90
14008;DHT22;61651;45.508;12.232;2022-08-07T12:47:36;29.40;99.90
14008;DHT22;61651;45.508;12.232;2022-08-07T12:50:47;29.30;99.90
14008;DHT22;61651;45.508;12.232;2022-08-07T12:53:56;29.20;99.90
14008;DHT22;61651;45.508;12.232;2022-08-07T12:56:59;29.20;99.90
14008;DHT22;61651;45.508;12.232;2022-08-07T13:00:04;28.90;99.90
14008;DHT22;61651;45.508;12.232;2022-08-07T13:03:18;28.80;99.90
14008;DHT22;61651;45.508;12.232;2022-08-07T13:06:51;28.80;99.90
14008;DHT22;61651;45.508;12.232;2022-08-07T13:10:21;28.50;99.90
14008;DHT22;61651;45.508;12.232;2022-08-07T13:13:40;28.60;99.90
14008;DHT22;61651;45.508;12.232;2022-08-07T13:16:47;28.80;99.90
14008;DHT22;61651;45.508;12.232;2022-08-07T13:19:59;28.90;99.90
14008;DHT22;61651;45.508;12.232;2022-08-07T13:23:06;28.90;99.90
14008;DHT22;61651;45.508;12.232;2022-08-07T13:26:13;29.20;99.90
14008;DHT22;61651;45.508;12.232;2022-08-07T13:29:22;29.50;99.90
14008;DHT22;61651;45.508;12.232;2022-08-07T13:32:28;30.10;99.90
14008;DHT22;61651;45.508;12.232;2022-08-07T13:35:36;30.40;99.90
14008;DHT22;61651;45.508;12.232;2022-08-07T13:38:46;30.60;99.90
14008;DHT22;61651;45.508;12.232;2022-08-07T13:48:20;31.30;99.90
14008;DHT22;61651;45.508;12.232;2022-08-07T13:51:24;32.00;99.90
14008;DHT22;61651;45.508;12.232;2022-08-07T13:54:29;33.00;99.90
14008;DHT22;61651;45.508;12.232;2022-08-07T13:57:34;32.60;99.90
14008;DHT22;61651;45.508;12.232;2022-08-07T14:00:39;32.80;99.90
14008;DHT22;61651;45.508;12.232;2022-08-07T14:03:42;33.00;99.90
14008;DHT22;61651;45.508;12.232;2022-08-07T14:06:46;33.30;99.90
14008;DHT22;61651;45.508;12.232;2022-08-07T14:09:54;33.30;99.90
14008;DHT22;61651;45.508;12.232;2022-08-07T14:13:00;33.70;99.90
14008;DHT22;61651;45.508;12.232;2022-08-07T14:16:04;34.30;99.90
14008;DHT22;61651;45.508;12.232;2022-08-07T14:19:16;34.50;99.90
14008;DHT22;61651;45.508;12.232;2022-08-07T14:22:23;35.00;99.90
14008;DHT22;61651;45.508;12.232;2022-08-07T14:25:31;35.20;99.90
14008;DHT22;61651;45.508;12.232;2022-08-07T14:28:34;34.80;99.90
14008;DHT22;61651;45.508;12.232;2022-08-07T14:31:37;34.20;99.90
14008;DHT22;61651;45.508;12.232;2022-08-07T14:34:43;33.50;99.90
14008;DHT22;61651;45.508;12.232;2022-08-07T14:37:49;33.00;99.90
14008;DHT22;61651;45.508;12.232;2022-08-07T14:40:55;33.00;99.90
14008;DHT22;61651;45.508;12.232;2022-08-07T14:43:59;32.90;99.90
14008;DHT22;61651;45.508;12.232;2022-08-07T14:47:03;32.70;99.90
14008;DHT22;61651;45.508;12.232;2022-08-07T14:50:08;32.40;99.90
14008;DHT22;61651;45.508;12.232;2022-08-07T14:53:19;32.30;99.90
14008;DHT22;61651;45.508;12.232;2022-08-07T14:56:26;32.10;99.90
14008;DHT22;61651;45.508;12.232;2022-08-07T14:59:33;32.10;99.90
14008;DHT22;61651;45.508;12.232;2022-08-07T15:02:35;32.20;99.90
14008;DHT22;61651;45.508;12.232;2022-08-07T15:05:38;32.20;99.90
14008;DHT22;61651;45.508;12.232;2022-08-07T15:08:43;31.70;99.90
14008;DHT22;61651;45.508;12.232;2022-08-07T15:11:55;31.70;99.90
14008;DHT22;61651;45.508;12.232;2022-08-07T15:15:03;31.60;99.90
14008;DHT22;61651;45.508;12.232;2022-08-07T15:18:09;31.90;99.90
14008;DHT22;61651;45.508;12.232;2022-08-07T15:21:14;32.40;99.90
14008;DHT22;61651;45.508;12.232;2022-08-07T15:24:20;32.30;99.90
14008;DHT22;61651;45.508;12.232;2022-08-07T15:27:26;32.30;99.90
14008;DHT22;61651;45.508;12.232;2022-08-07T15:30:31;32.60;99.90
14008;DHT22;61651;45.508;12.232;2022-08-07T15:33:34;32.70;99.90
14008;DHT22;61651;45.508;12.232;2022-08-07T15:36:39;32.70;99.90
14008;DHT22;61651;45.508;12.232;2022-08-07T15:39:56;32.90;99.90
14008;DHT22;61651;45.508;12.232;2022-08-07T15:43:09;33.00;99.90
14008;DHT22;61651;45.508;12.232;2022-08-07T15:46:16;33.10;99.90
14008;DHT22;61651;45.508;12.232;2022-08-07T15:49:25;32.90;99.90
14008;DHT22;61651;45.508;12.232;2022-08-07T15:52:29;32.60;99.90
14008;DHT22;61651;45.508;12.232;2022-08-07T15:55:32;32.30;99.90
14008;DHT22;61651;45.508;12.232;2022-08-07T15:58:46;32.30;99.90
14008;DHT22;61651;45.508;12.232;2022-08-07T16:01:51;32.40;99.90
14008;DHT22;61651;45.508;12.232;2022-08-07T16:04:54;32.70;99.90
14008;DHT22;61651;45.508;12.232;2022-08-07T16:08:03;32.70;99.90
14008;DHT22;61651;45.508;12.232;2022-08-07T16:11:12;32.80;99.90
14008;DHT22;61651;45.508;12.232;2022-08-07T16:14:35;32.90;99.90
14008;DHT22;61651;45.508;12.232;2022-08-07T16:17:47;32.50;99.90
14008;DHT22;61651;45.508;12.232;2022-08-07T16:20:53;32.20;99.90
14008;DHT22;61651;45.508;12.232;2022-08-07T16:24:01;32.30;99.90
14008;DHT22;61651;45.508;12.232;2022-08-07T16:27:11;32.50;99.90
14008;DHT22;61651;45.508;12.232;2022-08-07T16:30:18;32.60;99.90
14008;DHT22;61651;45.508;12.232;2022-08-07T16:33:25;32.60;99.90
14008;DHT22;61651;45.508;12.232;2022-08-07T16:36:37;32.50;99.90
14008;DHT22;61651;45.508;12.232;2022-08-07T16:43:42;32.40;99.90
14008;DHT22;61651;45.508;12.232;2022-08-07T16:47:02;32.40;99.90
14008;DHT22;61651;45.508;12.232;2022-08-07T16:50:20;32.30;99.90
14008;DHT22;61651;45.508;12.232;2022-08-07T16:53:42;32.20;99.90
14008;DHT22;61651;45.508;12.232;2022-08-07T16:57:01;32.20;99.90
14008;DHT22;61651;45.508;12.232;2022-08-07T17:00:08;32.10;99.90
14008;DHT22;61651;45.508;12.232;2022-08-07T17:03:19;32.00;99.90
14008;DHT22;61651;45.508;12.232;2022-08-07T17:06:36;32.00;99.90
14008;DHT22;61651;45.508;12.232;2022-08-07T17:09:48;31.90;99.90
14008;DHT22;61651;45.508;12.232;2022-08-07T17:12:55;31.90;99.90
14008;DHT22;61651;45.508;12.232;2022-08-07T17:16:03;31.80;99.90
14008;DHT22;61651;45.508;12.232;2022-08-07T17:19:12;31.70;99.90
14008;DHT22;61651;45.508;12.232;2022-08-07T17:22:18;31.10;99.90
14008;DHT22;61651;45.508;12.232;2022-08-07T17:25:26;30.70;99.90
14008;DHT22;61651;45.508;12.232;2022-08-07T17:28:34;30.60;99.90
14008;DHT22;61651;45.508;12.232;2022-08-07T17:31:46;30.80;99.90
14008;DHT22;61651;45.508;12.232;2022-08-07T17:34:53;30.90;99.90
14008;DHT22;61651;45.508;12.232;2022-08-07T17:38:01;30.70;99.90
14008;DHT22;61651;45.508;12.232;2022-08-07T17:41:08;30.50;99.90
14008;DHT22;61651;45.508;12.232;2022-08-07T17:44:23;30.50;99.90
14008;DHT22;61651;45.508;12.232;2022-08-07T17:47:33;30.50;99.90
14008;DHT22;61651;45.508;12.232;2022-08-07T17:50:58;30.50;99.90
14008;DHT22;61651;45.508;12.232;2022-08-07T17:54:11;30.50;99.90
14008;DHT22;61651;45.508;12.232;2022-08-07T17:57:18;30.40;99.90
14008;DHT22;61651;45.508;12.232;2022-08-07T18:00:25;30.30;99.90
14008;DHT22;61651;45.508;12.232;2022-08-07T18:03:34;30.20;99.90
14008;DHT22;61651;45.508;12.232;2022-08-07T18:06:55;30.10;99.90
14008;DHT22;61651;45.508;12.232;2022-08-07T18:10:01;30.10;99.90
14008;DHT22;61651;45.508;12.232;2022-08-07T18:13:12;30.10;99.90
14008;DHT22;61651;45.508;12.232;2022-08-07T18:16:23;30.10;99.90
14008;DHT22;61651;45.508;12.232;2022-08-07T18:19:38;30.20;99.90
14008;DHT22;61651;45.508;12.232;2022-08-07T18:22:49;30.20;99.90
14008;DHT22;61651;45.508;12.232;2022-08-07T18:25:58;30.10;99.90
14008;DHT22;61651;45.508;12.232;2022-08-07T18:29:06;30.10;99.90
14008;DHT22;61651;45.508;12.232;2022-08-07T18:32:24;30.10;99.90
14008;DHT22;61651;45.508;12.232;2022-08-07T18:35:35;30.00;99.90
14008;DHT22;61651;45.508;12.232;2022-08-07T18:39:05;29.90;99.90
14008;DHT22;61651;45.508;12.232;2022-08-07T18:42:17;29.80;99.90
14008;DHT22;61651;45.508;12.232;2022-08-07T18:45:26;29.90;99.90
14008;DHT22;61651;45.508;12.232;2022-08-07T18:48:41;29.80;99.90
14008;DHT22;61651;45.508;12.232;2022-08-07T18:51:49;29.80;99.90
14008;DHT22;61651;45.508;12.232;2022-08-07T18:55:06;29.80;99.90
14008;DHT22;61651;45.508;12.232;2022-08-07T18:58:37;29.80;99.90
14008;DHT22;61651;45.508;12.232;2022-08-07T19:01:44;29.80;99.90
14008;DHT22;61651;45.508;12.232;2022-08-07T19:04:57;29.70;99.90
14008;DHT22;61651;45.508;12.232;2022-08-07T19:08:05;29.60;99.90
14008;DHT22;61651;45.508;12.232;2022-08-07T19:11:14;29.60;99.90
14008;DHT22;61651;45.508;12.232;2022-08-07T19:14:38;29.50;99.90
14008;DHT22;61651;45.508;12.232;2022-08-07T19:17:53;29.50;99.90
14008;DHT22;61651;45.508;12.232;2022-08-07T19:21:00;29.40;99.90
14008;DHT22;61651;45.508;12.232;2022-08-07T19:24:08;29.30;99.90
14008;DHT22;61651;45.508;12.232;2022-08-07T19:27:16;29.30;99.90
14008;DHT22;61651;45.508;12.232;2022-08-07T19:30:19;29.20;99.90
14008;DHT22;61651;45.508;12.232;2022-08-07T19:33:22;29.10;99.90
14008;DHT22;61651;45.508;12.232;2022-08-07T19:36:25;29.10;99.90
14008;DHT22;61651;45.508;12.232;2022-08-07T19:39:32;29.00;99.90
14008;DHT22;61651;45.508;12.232;2022-08-07T19:42:39;28.90;99.90
14008;DHT22;61651;45.508;12.232;2022-08-07T19:45:44;28.80;99.90